ADDS METAR Data INFO
IDs: Format: Raw Decoded Include TAF

Data at: 2327 UTC 19 Oct 2017

KSEP 192315Z AUTO 15008KT 10SM CLR 25/10 A3009 RMK AO2 T02520097
KSEP 192255Z AUTO 14005KT 10SM CLR 27/10 A3009 RMK AO2 T02650102
KSEP 192235Z AUTO 16007KT 10SM CLR 26/10 A3009 RMK AO2 T02580096
KSEP 192215Z AUTO 16005KT 10SM CLR 26/10 A3009 RMK AO2 T02610097
KSEP 192155Z AUTO 16005KT 10SM CLR 26/09 A3009 RMK AO2 T02600093
KSEP 192135Z AUTO 14008KT 10SM CLR 26/09 A3009 RMK AO2 T02620087
KSEP 192115Z AUTO 13010KT 10SM CLR 28/08 A3009 RMK AO2 T02760083
KSEP 192055Z AUTO 15006KT 10SM CLR 27/09 A3009 RMK AO2 T02700088
KSEP 192035Z AUTO 13012KT 10SM CLR 27/08 A3009 RMK AO2 T02740079
KSEP 192015Z AUTO 17008KT 130V190 10SM CLR 27/08 A3010 RMK AO2 T02710084
KSEP 191955Z AUTO 17006KT 10SM CLR 27/08 A3011 RMK AO2 T02670084
KSEP 191935Z AUTO 13006KT 10SM CLR 26/08 A3012 RMK AO2 T02640083
KSEP 191915Z AUTO 15008KT 10SM CLR 27/09 A3013 RMK AO2 T02660092
KSEP 191855Z AUTO 17006KT 10SM CLR 26/10 A3014 RMK AO2 T02620101
KSEP 191835Z AUTO 15004KT 10SM CLR 26/11 A3015 RMK AO2 T02590111
KSEP 191815Z AUTO 19006KT 10SM CLR 26/10 A3016 RMK AO2 T02580096
KSEP 191755Z AUTO 15008KT 10SM CLR 25/11 A3017 RMK AO2 T02510107 10251 20111
KSEP 191735Z AUTO 14009KT 10SM CLR 24/12 A3019 RMK AO2 T02430116
KSEP 191715Z AUTO 17007KT 10SM CLR 24/12 A3019 RMK AO2 T02380120
KSEP 191655Z AUTO 16010KT 10SM CLR 24/13 A3020 RMK AO2 T02370131
KSEP 191635Z AUTO 15010KT 10SM CLR 23/14 A3020 RMK AO2 T02250136
KSEP 191615Z AUTO 15010G14KT 10SM CLR 22/14 A3020 RMK AO2 T02230141
KSEP 191555Z AUTO 16007KT 10SM CLR 21/14 A3020 RMK AO2 T02120144
KSEP 191535Z AUTO 18006KT 10SM CLR 20/14 A3020 RMK AO2 T02000140
KSEP 191515Z AUTO 17006KT 10SM CLR 19/14 A3021 RMK AO2 T01880137
KSEP 191455Z AUTO 18005KT 10SM CLR 17/13 A3020 RMK AO2 T01710130
KSEP 191435Z AUTO 19006KT 10SM CLR 16/12 A3020 RMK AO2 T01630124
KSEP 191415Z AUTO 18004KT 10SM CLR 15/12 A3019 RMK AO2 T01520117
KSEP 191355Z AUTO 16004KT 10SM CLR 14/11 A3018 RMK AO2 T01400108
KSEP 191335Z AUTO 16003KT 10SM CLR 12/09 A3017 RMK AO2 T01190092
KSEP 191315Z AUTO 17003KT 10SM CLR 11/08 A3016 RMK AO2 T01120084
KSEP 191255Z AUTO 00000KT 10SM CLR 11/08 A3015 RMK AO2 T01120081
KSEP 191235Z AUTO 16003KT 10SM CLR 11/08 A3015 RMK AO2 T01130081
KSEP 191215Z AUTO 17003KT 10SM CLR 12/08 A3015 RMK AO2 T01150080
KSEP 191155Z AUTO 15003KT 10SM CLR 11/08 A3014 RMK AO2 T01130079 10143 20112
KSEP 191135Z AUTO 16003KT 10SM CLR 11/08 A3014 RMK AO2 T01130078
KSEP 191115Z AUTO 17004KT 10SM CLR 11/08 A3014 RMK AO2 T01140077
KSEP 191055Z AUTO 17004KT 10SM CLR 12/08 A3013 RMK AO2 T01180077
KSEP 191035Z AUTO 19004KT 10SM CLR 12/08 A3013 RMK AO2 T01210080
KSEP 191015Z AUTO 15004KT 10SM CLR 12/08 A3012 RMK AO2 T01210077
KSEP 190955Z AUTO 00000KT 10SM CLR 12/08 A3013 RMK AO2 T01220077
KSEP 190935Z AUTO 00000KT 10SM CLR 12/08 A3012 RMK AO2 T01210076
KSEP 190915Z AUTO 00000KT 10SM CLR 13/08 A3012 RMK AO2 T01260076
KSEP 190855Z AUTO 00000KT 10SM CLR 13/08 A3013 RMK AO2 T01250077
KSEP 190835Z AUTO 00000KT 10SM CLR 12/08 A3013 RMK AO2 T01200076
KSEP 190815Z AUTO 00000KT 10SM CLR 12/08 A3013 RMK AO2 T01230075
KSEP 190755Z AUTO 00000KT 10SM CLR 12/08 A3014 RMK AO2 T01230075
KSEP 190735Z AUTO 00000KT 10SM CLR 13/07 A3014 RMK AO2 T01270073
KSEP 190715Z AUTO 00000KT 10SM CLR 13/07 A3014 RMK AO2 T01320073
KSEP 190655Z AUTO 00000KT 10SM CLR 14/07 A3014 RMK AO2 T01380072
KSEP 190635Z AUTO 00000KT 10SM CLR 14/07 A3014 RMK AO2 T01400071
KSEP 190615Z AUTO 00000KT 10SM CLR 14/07 A3014 RMK AO2 T01410071
KSEP 190555Z AUTO 00000KT 10SM CLR 14/07 A3014 RMK AO2 T01430071 10226 20143 402860077
KSEP 190535Z AUTO 00000KT 10SM CLR 15/07 A3014 RMK AO2 T01470070
KSEP 190515Z AUTO 16003KT 10SM CLR 15/07 A3014 RMK AO2 T01500068
KSEP 190455Z AUTO 16003KT 10SM CLR 16/07 A3014 RMK AO2 T01550066
KSEP 190435Z AUTO 15003KT 10SM CLR 16/07 A3014 RMK AO2 T01570067
KSEP 190415Z AUTO 16003KT 10SM CLR 16/07 A3014 RMK AO2 T01590070
KSEP 190355Z AUTO 17003KT 10SM CLR 16/07 A3014 RMK AO2 T01630068
KSEP 190335Z AUTO 18004KT 10SM CLR 18/06 A3013 RMK AO2 T01780061
KSEP 190315Z AUTO 16005KT 10SM CLR 19/06 A3013 RMK AO2 T01850057
KSEP 190255Z AUTO 15004KT 10SM CLR 19/06 A3012 RMK AO2 T01860057
KSEP 190235Z AUTO 15006KT 10SM CLR 19/06 A3012 RMK AO2 T01910058
KSEP 190215Z AUTO 15007KT 10SM CLR 20/06 A3012 RMK AO2 T01960059
KSEP 190155Z AUTO 15007KT 10SM CLR 20/06 A3012 RMK AO2 T02000056
KSEP 190135Z AUTO 14006KT 10SM CLR 20/06 A3012 RMK AO2 T02010063
KSEP 190115Z AUTO 13005KT 10SM CLR 20/07 A3011 RMK AO2 T02010069
KSEP 190055Z AUTO 13006KT 10SM CLR 21/07 A3010 RMK AO2 T02050071
KSEP 190035Z AUTO 13006KT 10SM CLR 21/07 A3010 RMK AO2 T02110067
KSEP 190015Z AUTO 12006KT 10SM CLR 22/06 A3010 RMK AO2 T02170063
KSEP 182355Z AUTO 12005KT 10SM CLR 23/06 A3009 RMK AO2 T02280055 10286 20228
KSEP 182335Z AUTO 14006KT 10SM CLR 25/05 A3009 RMK AO2 T02450051
KSEP 182315Z AUTO 14005KT 10SM CLR 26/05 A3009 RMK AO2 T02550050
KSEP 182255Z AUTO 15007KT 10SM CLR 26/04 A3009 RMK AO2 T02600044
KSEP 182235Z AUTO 17008KT 10SM CLR 27/04 A3009 RMK AO2 T02660043
KSEP 182215Z AUTO 16009KT 10SM CLR 27/05 A3009 RMK AO2 T02740048
KSEP 182155Z AUTO 17007KT 10SM CLR 28/05 A3009 RMK AO2 T02750045
KSEP 182135Z AUTO 19010KT 140V200 10SM CLR 28/04 A3009 RMK AO2 T02800043
KSEP 182115Z AUTO 15007KT 10SM CLR 29/05 A3009 RMK AO2 T02860048
KSEP 182055Z AUTO 20009G14KT 10SM CLR 29/04 A3010 RMK AO2 T02860042
KSEP 182035Z AUTO 17011G14KT 10SM CLR 28/04 A3010 RMK AO2 T02780044
KSEP 182015Z AUTO 19007KT 10SM CLR 27/04 A3011 RMK AO2 T02700043
KSEP 181955Z AUTO 17008KT 10SM CLR 27/04 A3012 RMK AO2 T02710040
KSEP 181935Z AUTO 18010G15KT 10SM CLR 28/04 A3012 RMK AO2 T02750037
KSEP 181915Z AUTO 18009KT 10SM CLR 27/05 A3013 RMK AO2 T02710048
KSEP 181855Z AUTO 19011G14KT 10SM CLR 27/04 A3014 RMK AO2 T02700043
KSEP 181835Z AUTO 17010G14KT 10SM CLR 27/05 A3016 RMK AO2 T02650054
KSEP 181815Z AUTO 18009KT 10SM CLR 26/06 A3016 RMK AO2 T02630063
KSEP 181755Z AUTO 17009KT 10SM CLR 26/07 A3017 RMK AO2 T02570066 10257 20077
KSEP 181735Z AUTO 18008G14KT 10SM CLR 25/06 A3017 RMK AO2 T02460063
KSEP 181715Z AUTO 19009G14KT 10SM CLR 24/07 A3018 RMK AO2 T02380068
KSEP 181655Z AUTO 18009G14KT 10SM CLR 23/07 A3019 RMK AO2 T02300073
KSEP 181635Z AUTO 19006KT 10SM CLR 22/07 A3019 RMK AO2 T02200072
KSEP 181615Z AUTO 20009KT 160V220 10SM CLR 21/07 A3019 RMK AO2 T02140072
KSEP 181555Z AUTO 19012KT 10SM CLR 21/07 A3019 RMK AO2 T02080073
KSEP 181535Z AUTO 19009G14KT 10SM CLR 20/07 A3019 RMK AO2 T01980074
KSEP 181515Z AUTO 19009G15KT 10SM CLR 18/08 A3019 RMK AO2 T01820081
KSEP 181455Z AUTO 19007KT 10SM CLR 16/09 A3019 RMK AO2 T01600094
KSEP 181435Z AUTO 17005KT 10SM CLR 14/09 A3019 RMK AO2 T01370088
KSEP 181415Z AUTO 17004KT 10SM CLR 12/08 A3018 RMK AO2 T01220079
KSEP 181355Z AUTO 17005KT 10SM CLR 11/07 A3017 RMK AO2 T01080072
KSEP 181335Z AUTO 18004KT 10SM CLR 10/07 A3017 RMK AO2 T00950067
KSEP 181315Z AUTO 17003KT 10SM CLR 08/06 A3016 RMK AO2 T00840060
KSEP 181255Z AUTO 17004KT 10SM CLR 08/05 A3016 RMK AO2 T00770054
KSEP 181235Z AUTO 17004KT 10SM CLR 08/05 A3015 RMK AO2 T00790054
KSEP 181215Z AUTO 18004KT 10SM CLR 08/06 A3015 RMK AO2 T00810055
KSEP 181155Z AUTO 18004KT 10SM CLR 08/06 A3015 RMK AO2 T00800055 10108 20080
KSEP 181135Z AUTO 18004KT 10SM CLR 08/05 A3015 RMK AO2 T00800053